createdAt,value
2018-04-22T00:00:45.754Z,99.90
2018-04-22T00:03:14.072Z,99.90
2018-04-22T00:05:41.613Z,99.90
2018-04-22T00:08:09.168Z,99.90
2018-04-22T00:10:36.705Z,99.90
2018-04-22T00:13:05.004Z,99.90
2018-04-22T00:15:32.556Z,99.90
2018-04-22T00:18:00.090Z,99.90
2018-04-22T00:20:27.649Z,99.90
2018-04-22T00:22:55.177Z,99.90
2018-04-22T00:25:22.736Z,99.90
2018-04-22T00:27:50.260Z,99.90
2018-04-22T00:30:17.827Z,99.90
2018-04-22T00:32:45.364Z,99.90
2018-04-22T00:35:13.693Z,99.90
2018-04-22T00:37:41.222Z,99.90
2018-04-22T00:40:08.781Z,99.90
2018-04-22T00:42:36.314Z,99.90
2018-04-22T00:45:04.638Z,99.90
2018-04-22T00:47:32.173Z,99.90
2018-04-22T00:49:59.737Z,99.90
2018-04-22T00:52:27.271Z,99.90
2018-04-22T00:54:55.592Z,99.90
2018-04-22T00:57:23.120Z,99.90
2018-04-22T00:59:51.447Z,99.90
2018-04-22T01:02:18.977Z,99.90
2018-04-22T01:04:46.536Z,99.90
2018-04-22T01:07:16.032Z,99.90
2018-04-22T01:09:43.591Z,99.90
2018-04-22T01:12:11.138Z,99.90
2018-04-22T01:14:39.537Z,99.90
2018-04-22T01:17:07.073Z,99.90
2018-04-22T01:19:35.400Z,99.90
2018-04-22T01:22:02.941Z,99.90
2018-04-22T01:24:30.501Z,99.90
2018-04-22T01:26:58.034Z,99.90
2018-04-22T01:29:26.362Z,99.90
2018-04-22T01:31:53.897Z,99.90
2018-04-22T01:34:21.458Z,99.90
2018-04-22T01:36:54.802Z,99.90
2018-04-22T01:39:22.359Z,99.90
2018-04-22T01:41:49.882Z,99.90
2018-04-22T01:44:17.443Z,99.90
2018-04-22T01:46:44.973Z,99.90
2018-04-22T01:49:13.301Z,99.90
2018-04-22T01:51:40.829Z,99.90
2018-04-22T01:54:08.384Z,99.90
2018-04-22T01:56:35.925Z,99.90
2018-04-22T01:59:04.244Z,99.90
2018-04-22T02:01:31.773Z,99.90
2018-04-22T02:04:00.092Z,99.90
2018-04-22T02:06:27.615Z,99.90
2018-04-22T02:08:55.173Z,99.90
2018-04-22T02:11:22.711Z,99.90
2018-04-22T02:13:51.030Z,99.90
2018-04-22T02:16:18.553Z,99.90
2018-04-22T02:18:46.885Z,99.90
2018-04-22T02:21:14.418Z,99.90
2018-04-22T02:23:41.973Z,99.90
2018-04-22T02:26:09.501Z,99.90
2018-04-22T02:28:37.044Z,99.90
2018-04-22T02:31:04.610Z,99.90
2018-04-22T02:33:32.146Z,99.90
2018-04-22T02:35:59.713Z,99.90
2018-04-22T02:38:27.241Z,99.90
2018-04-22T02:40:54.798Z,99.90
2018-04-22T02:43:22.330Z,99.90
2018-04-22T02:45:50.645Z,99.90
2018-04-22T02:48:18.173Z,99.90
2018-04-22T02:50:46.501Z,99.90
2018-04-22T02:53:14.034Z,99.90
2018-04-22T02:55:41.602Z,99.90
2018-04-22T02:58:09.136Z,99.90
2018-04-22T03:00:36.704Z,99.90
2018-04-22T03:03:04.248Z,99.90
2018-04-22T03:05:32.575Z,99.90
2018-04-22T03:08:00.106Z,99.90
2018-04-22T03:10:27.664Z,99.90
2018-04-22T03:12:55.197Z,99.90
2018-04-22T03:15:23.520Z,99.90
2018-04-22T03:17:51.052Z,99.90
2018-04-22T03:20:18.616Z,99.90
2018-04-22T03:22:46.192Z,99.90
2018-04-22T03:25:13.728Z,99.90
2018-04-22T03:27:41.265Z,99.90
2018-04-22T03:30:09.614Z,99.90
2018-04-22T03:32:37.148Z,99.90
2018-04-22T03:35:04.711Z,99.90
2018-04-22T03:37:32.249Z,99.90
2018-04-22T03:39:59.812Z,99.90
2018-04-22T03:42:27.358Z,99.90
2018-04-22T03:44:54.920Z,99.90
2018-04-22T03:47:23.211Z,99.90
2018-04-22T03:49:50.777Z,99.90
2018-04-22T03:52:18.317Z,99.90
2018-04-22T03:54:46.645Z,99.90
2018-04-22T03:57:14.183Z,99.90
2018-04-22T03:59:41.733Z,99.90
2018-04-22T04:02:09.260Z,99.90
2018-04-22T04:04:37.582Z,99.90
2018-04-22T04:07:05.104Z,99.90
2018-04-22T04:09:33.422Z,99.90
2018-04-22T04:12:00.960Z,99.90
2018-04-22T04:14:28.526Z,99.90
2018-04-22T04:16:56.063Z,99.90
2018-04-22T04:19:36.385Z,99.90
2018-04-22T04:22:15.640Z,99.90
2018-04-22T04:24:56.909Z,99.90
2018-04-22T04:30:25.392Z,99.90
2018-04-22T04:32:52.922Z,99.90
2018-04-22T04:35:20.481Z,99.90
2018-04-22T04:37:48.032Z,99.90
2018-04-22T04:40:15.593Z,99.90
2018-04-22T04:42:43.129Z,99.90
2018-04-22T04:45:11.454Z,99.90
2018-04-22T04:47:38.992Z,99.90
2018-04-22T04:50:06.567Z,99.90
2018-04-22T04:52:34.104Z,99.90
2018-04-22T04:55:02.421Z,99.90
2018-04-22T04:57:29.950Z,99.90
2018-04-22T04:59:57.500Z,99.90
2018-04-22T05:02:25.809Z,99.90
2018-04-22T05:04:53.384Z,99.90
2018-04-22T05:07:20.925Z,99.90
2018-04-22T05:09:48.461Z,99.90
2018-04-22T05:12:16.023Z,99.90
2018-04-22T05:14:43.561Z,99.90
2018-04-22T05:17:11.898Z,99.90
2018-04-22T05:19:39.430Z,99.90
2018-04-22T05:22:06.997Z,99.90
2018-04-22T05:24:34.524Z,99.90
2018-04-22T05:27:02.850Z,99.90
2018-04-22T05:29:30.377Z,99.90
2018-04-22T05:31:57.941Z,99.90
2018-04-22T05:34:25.521Z,99.90
2018-04-22T05:36:53.062Z,99.90
2018-04-22T05:39:20.596Z,99.90
2018-04-22T05:41:48.190Z,99.90
2018-04-22T05:44:15.733Z,99.90
2018-04-22T05:46:43.293Z,99.90
2018-04-22T05:49:11.587Z,99.90
2018-04-22T05:51:39.144Z,99.90
2018-04-22T05:54:06.674Z,99.90
2018-04-22T05:56:35.005Z,99.90
2018-04-22T05:59:02.542Z,99.90
2018-04-22T06:01:30.104Z,99.90
2018-04-22T06:03:57.633Z,99.90
2018-04-22T06:06:25.958Z,99.90
2018-04-22T06:08:53.485Z,99.90
2018-04-22T06:11:21.816Z,99.90
2018-04-22T06:13:49.353Z,99.90
2018-04-22T06:16:16.908Z,99.90
2018-04-22T06:18:44.447Z,99.90
2018-04-22T06:21:11.997Z,99.90
2018-04-22T06:23:40.283Z,99.90
2018-04-22T06:26:07.845Z,99.90
2018-04-22T06:28:35.376Z,99.90
2018-04-22T06:51:30.606Z,99.90
2018-04-22T06:53:58.132Z,99.90
2018-04-22T06:56:25.690Z,99.90
2018-04-22T06:58:53.222Z,99.90
2018-04-22T07:01:20.825Z,99.90
2018-04-22T07:03:48.356Z,99.90
2018-04-22T07:06:15.914Z,99.90
2018-04-22T07:08:43.455Z,99.90
2018-04-22T07:11:11.774Z,99.90
2018-04-22T07:13:39.310Z,99.90
2018-04-22T07:16:06.869Z,99.90
2018-04-22T07:18:34.397Z,99.90
2018-04-22T07:21:01.949Z,99.90
2018-04-22T07:23:29.477Z,99.90
2018-04-22T07:25:57.041Z,99.90
2018-04-22T07:28:24.568Z,99.90
2018-04-22T07:30:52.129Z,99.90
2018-04-22T07:33:19.669Z,99.90
2018-04-22T07:35:47.993Z,99.90
2018-04-22T07:38:15.521Z,99.90
2018-04-22T07:40:43.135Z,99.90
2018-04-22T07:43:10.641Z,99.90
2018-04-22T07:45:38.197Z,99.90
2018-04-22T07:48:06.500Z,99.90
2018-04-22T07:50:34.055Z,99.90
2018-04-22T07:53:01.594Z,99.90
2018-04-22T07:55:29.132Z,99.90
2018-04-22T07:57:56.688Z,99.90
2018-04-22T08:00:24.999Z,99.90
2018-04-22T08:02:52.557Z,99.90
2018-04-22T08:05:20.089Z,99.90
2018-04-22T08:07:48.417Z,99.90
2018-04-22T08:10:16.732Z,99.90
2018-04-22T08:12:43.537Z,99.90
2018-04-22T08:15:11.064Z,99.90
2018-04-22T08:17:39.385Z,99.90
2018-04-22T08:20:06.910Z,99.90
2018-04-22T08:22:34.468Z,99.90
2018-04-22T08:25:01.998Z,99.90
2018-04-22T08:27:29.550Z,99.90
2018-04-22T08:29:57.085Z,99.90
2018-04-22T08:32:24.636Z,99.90
2018-04-22T08:34:52.161Z,99.90
2018-04-22T08:37:19.726Z,99.90
2018-04-22T08:39:47.252Z,99.90
2018-04-22T08:42:14.809Z,99.90
2018-04-22T08:44:42.355Z,99.90
2018-04-22T08:47:09.910Z,99.90
2018-04-22T08:49:37.437Z,99.90
2018-04-22T08:52:05.021Z,99.90
2018-04-22T08:54:32.545Z,99.90
2018-04-22T08:57:00.102Z,99.90
2018-04-22T08:59:27.629Z,99.90
2018-04-22T09:01:55.181Z,99.90
2018-04-22T09:04:22.720Z,99.90
2018-04-22T09:06:50.272Z,99.90
2018-04-22T09:09:17.806Z,99.90
2018-04-22T09:11:45.360Z,99.90
2018-04-22T09:14:12.896Z,99.90
2018-04-22T09:16:41.215Z,99.90
2018-04-22T09:19:08.757Z,99.90
2018-04-22T09:21:36.309Z,99.90
2018-04-22T09:24:04.604Z,99.90
2018-04-22T09:26:32.161Z,99.90
2018-04-22T09:28:59.689Z,99.90
2018-04-22T09:31:28.011Z,99.90
2018-04-22T09:33:55.542Z,99.90
2018-04-22T09:36:23.864Z,99.90
2018-04-22T09:38:51.388Z,99.90
2018-04-22T09:41:18.937Z,99.90
2018-04-22T09:43:47.228Z,99.90
2018-04-22T09:46:14.789Z,99.90
2018-04-22T09:48:42.480Z,99.90
2018-04-22T09:51:10.040Z,99.90
2018-04-22T09:53:37.566Z,99.90
2018-04-22T09:56:05.117Z,99.90
2018-04-22T09:58:33.411Z,99.90
2018-04-22T10:01:00.969Z,99.90
2018-04-22T10:03:31.306Z,99.90
2018-04-22T10:06:01.569Z,99.90
2018-04-22T10:08:29.102Z,99.90
2018-04-22T10:10:56.637Z,99.90
2018-04-22T10:13:24.192Z,99.90
2018-04-22T10:15:51.720Z,99.90
2018-04-22T10:18:19.269Z,99.90
2018-04-22T10:20:46.792Z,99.90
2018-04-22T10:23:14.347Z,99.90
2018-04-22T10:25:41.872Z,99.90
2018-04-22T10:28:10.195Z,99.90
2018-04-22T10:30:37.728Z,99.90
2018-04-22T10:33:05.278Z,99.90
2018-04-22T10:35:33.569Z,99.90
2018-04-22T10:38:01.126Z,99.90
2018-04-22T10:40:28.659Z,99.90
2018-04-22T10:42:56.986Z,99.90
2018-04-22T10:45:24.520Z,99.90
2018-04-22T10:47:52.088Z,99.90
2018-04-22T10:50:19.612Z,99.90
2018-04-22T10:52:47.168Z,99.90
2018-04-22T10:55:14.704Z,99.90
2018-04-22T10:57:42.280Z,99.90
2018-04-22T11:00:09.803Z,99.90
2018-04-22T11:02:37.358Z,99.90
2018-04-22T11:05:04.935Z,99.90
2018-04-22T11:07:32.468Z,99.90
2018-04-22T11:10:00.759Z,99.90
2018-04-22T11:12:28.303Z,99.90
2018-04-22T11:14:55.830Z,99.90
2018-04-22T11:17:23.384Z,99.90
2018-04-22T11:19:50.915Z,99.90
2018-04-22T11:22:18.474Z,99.90
2018-04-22T11:24:46.001Z,99.90
2018-04-22T11:27:13.549Z,99.90
2018-04-22T11:29:41.838Z,99.90
2018-04-22T11:32:09.405Z,99.90
2018-04-22T11:34:36.938Z,99.90
2018-04-22T11:37:05.252Z,99.90
2018-04-22T11:39:32.781Z,99.90
2018-04-22T11:42:01.163Z,99.90
2018-04-22T11:44:28.648Z,99.90
2018-04-22T11:46:56.197Z,99.90
2018-04-22T11:49:23.716Z,99.90
2018-04-22T11:51:51.269Z,99.90
2018-04-22T11:54:18.797Z,99.90
2018-04-22T11:56:46.348Z,99.90
2018-04-22T11:59:13.884Z,99.90
2018-04-22T12:01:41.428Z,99.90
2018-04-22T12:04:09.716Z,99.90
2018-04-22T12:06:38.037Z,99.90
2018-04-22T12:09:05.562Z,99.90
2018-04-22T12:11:33.117Z,99.90
2018-04-22T12:14:00.649Z,99.90
2018-04-22T12:16:28.176Z,99.90
2018-04-22T12:18:55.730Z,99.90
2018-04-22T12:21:23.261Z,99.90
2018-04-22T12:23:50.818Z,99.90
2018-04-22T12:26:18.349Z,99.90
2018-04-22T12:28:46.688Z,99.90
2018-04-22T12:31:14.220Z,99.90
2018-04-22T12:33:41.780Z,99.60
2018-04-22T12:36:09.308Z,98.10
2018-04-22T12:38:37.960Z,98.50
2018-04-22T12:41:05.509Z,98.50
2018-04-22T12:43:33.066Z,98.10
2018-04-22T12:46:00.604Z,96.80
2018-04-22T12:48:28.166Z,95.90
2018-04-22T12:50:55.850Z,95.30
2018-04-22T12:53:23.521Z,94.90
2018-04-22T12:55:51.064Z,95.60
2018-04-22T12:58:18.609Z,93.80
2018-04-22T13:00:46.148Z,92.80
2018-04-22T13:03:14.464Z,92.90
2018-04-22T13:05:41.993Z,92.90
2018-04-22T13:08:10.309Z,92.10
2018-04-22T13:10:37.833Z,92.20
2018-04-22T13:13:05.403Z,91.10
2018-04-22T13:15:32.943Z,91.80
2018-04-22T13:18:01.340Z,90.40
2018-04-22T13:20:28.861Z,90.30
2018-04-22T13:22:56.416Z,90.40
2018-04-22T13:25:23.994Z,92.00
2018-04-22T13:27:52.304Z,84.00
2018-04-22T13:30:19.834Z,84.00
2018-04-22T13:32:48.156Z,86.20
2018-04-22T13:35:15.689Z,86.10
2018-04-22T13:37:43.242Z,86.80
2018-04-22T13:40:11.537Z,89.10
2018-04-22T13:42:39.093Z,89.10
2018-04-22T13:45:06.622Z,91.00
2018-04-22T13:47:34.945Z,90.90
2018-04-22T13:50:02.471Z,90.90
2018-04-22T13:52:31.743Z,90.40
2018-04-22T13:54:59.278Z,90.40
2018-04-22T13:57:26.838Z,89.30
2018-04-22T13:59:54.369Z,90.50
2018-04-22T14:02:21.925Z,89.30
2018-04-22T14:04:49.469Z,88.80
2018-04-22T14:07:17.785Z,90.70
2018-04-22T14:09:45.312Z,90.60
2018-04-22T14:12:13.620Z,88.90
2018-04-22T14:14:41.141Z,88.80
2018-04-22T14:17:09.457Z,87.90
2018-04-22T14:19:36.981Z,87.80
2018-04-22T14:22:05.269Z,88.40
2018-04-22T14:24:32.819Z,88.30
2018-04-22T14:27:01.106Z,84.50
2018-04-22T14:29:28.661Z,84.40
2018-04-22T14:31:56.194Z,84.60
2018-04-22T14:34:23.757Z,83.30
2018-04-22T14:36:52.058Z,83.20
2018-04-22T14:39:19.616Z,83.00
2018-04-22T14:41:47.918Z,78.90
2018-04-22T14:44:27.419Z,79.00
2018-04-22T14:46:55.708Z,78.20
2018-04-22T14:49:24.025Z,74.90
2018-04-22T14:51:51.554Z,74.80
2018-04-22T14:54:19.122Z,75.20
2018-04-22T14:56:47.425Z,76.30
2018-04-22T14:59:14.977Z,76.50
2018-04-22T15:01:42.511Z,73.00
2018-04-22T15:04:10.069Z,71.90
2018-04-22T15:06:37.596Z,72.00
2018-04-22T15:09:06.032Z,72.30
2018-04-22T15:11:33.553Z,72.80
2018-04-22T15:14:01.873Z,69.60
2018-04-22T15:16:29.400Z,69.60
2018-04-22T15:18:57.721Z,70.60
2018-04-22T15:21:25.246Z,70.60
2018-04-22T15:23:52.801Z,69.20
2018-04-22T15:26:20.324Z,69.80
2018-04-22T15:28:47.877Z,68.60
2018-04-22T15:31:15.462Z,67.90
2018-04-22T15:33:42.980Z,68.90
2018-04-22T15:38:35.948Z,67.00
2018-04-22T15:41:03.469Z,67.50
2018-04-22T15:43:31.017Z,68.00
2018-04-22T15:45:59.309Z,70.30
2018-04-22T15:48:26.855Z,70.30
2018-04-22T15:50:55.144Z,69.80
2018-04-22T15:53:22.697Z,69.60
2018-04-22T15:55:50.989Z,72.00
2018-04-22T15:58:18.555Z,72.10
2018-04-22T16:00:46.089Z,72.00
2018-04-22T16:03:14.425Z,71.60
2018-04-22T16:05:41.952Z,71.60
2018-04-22T16:08:09.512Z,70.70
2018-04-22T16:10:37.038Z,74.50
2018-04-22T16:13:05.358Z,74.80
2018-04-22T16:15:32.884Z,74.70
2018-04-22T16:18:01.200Z,70.20
2018-04-22T16:20:28.729Z,70.10
2018-04-22T16:22:56.290Z,70.00
2018-04-22T16:25:23.854Z,70.00
2018-04-22T16:27:51.428Z,69.10
2018-04-22T16:30:18.960Z,69.70
2018-04-22T16:32:47.277Z,70.30
2018-04-22T16:35:14.818Z,70.20
2018-04-22T16:37:42.372Z,72.30
2018-04-22T16:40:09.901Z,70.40
2018-04-22T16:42:37.421Z,71.60
2018-04-22T16:45:04.980Z,72.50
2018-04-22T16:47:32.510Z,69.50
2018-04-22T16:50:00.060Z,71.70
2018-04-22T16:52:28.354Z,70.90
2018-04-22T16:54:55.903Z,70.90
2018-04-22T16:57:24.217Z,72.10
2018-04-22T16:59:51.770Z,72.10
2018-04-22T17:02:19.296Z,71.20
2018-04-22T17:04:47.613Z,70.90
2018-04-22T17:07:15.146Z,70.60
2018-04-22T17:09:42.696Z,69.90
2018-04-22T17:12:10.988Z,70.80
2018-04-22T17:14:38.585Z,70.80
2018-04-22T17:17:06.093Z,71.40
2018-04-22T17:19:34.405Z,71.90
2018-04-22T17:22:02.702Z,70.20
2018-04-22T17:24:31.037Z,71.60
2018-04-22T17:26:58.560Z,71.60
2018-04-22T17:29:26.885Z,72.00
2018-04-22T17:31:54.432Z,72.00
2018-04-22T17:34:21.968Z,73.20
2018-04-22T17:36:50.256Z,72.90
2018-04-22T17:39:18.578Z,74.30
2018-04-22T17:41:46.877Z,74.30
2018-04-22T17:44:14.485Z,74.20
2018-04-22T17:46:42.765Z,72.60
2018-04-22T17:49:10.315Z,72.60
2018-04-22T17:51:37.846Z,74.30
2018-04-22T17:54:06.165Z,74.10
2018-04-22T17:56:33.701Z,74.00
2018-04-22T17:59:02.017Z,76.30
2018-04-22T18:01:29.580Z,76.40
2018-04-22T18:03:57.129Z,73.80
2018-04-22T18:06:24.657Z,74.40
2018-04-22T18:08:52.968Z,75.70
2018-04-22T18:11:20.493Z,75.50
2018-04-22T18:13:48.812Z,77.40
2018-04-22T18:16:16.336Z,77.40
2018-04-22T18:18:44.654Z,77.70
2018-04-22T18:21:12.173Z,77.70
2018-04-22T18:23:39.724Z,78.30
2018-04-22T18:26:08.018Z,78.90
2018-04-22T18:28:35.568Z,78.70
2018-04-22T18:31:03.860Z,78.50
2018-04-22T18:33:31.415Z,78.40
2018-04-22T18:35:58.948Z,78.80
2018-04-22T18:38:27.284Z,80.40
2018-04-22T18:40:54.821Z,80.40
2018-04-22T18:43:23.185Z,81.10
2018-04-22T18:45:50.720Z,80.90
2018-04-22T18:48:18.277Z,81.20
2018-04-22T18:50:45.820Z,82.60
2018-04-22T18:53:13.393Z,83.20
2018-04-22T18:55:40.921Z,83.30
2018-04-22T18:58:08.453Z,84.00
2018-04-22T19:00:36.014Z,86.40
2018-04-22T19:03:03.540Z,84.50
2018-04-22T19:05:31.097Z,84.80
2018-04-22T19:07:58.625Z,84.90
2018-04-22T19:10:26.190Z,86.20
2018-04-22T19:12:54.492Z,88.10
2018-04-22T19:15:22.044Z,87.50
2018-04-22T19:17:49.581Z,87.30
2018-04-22T19:20:17.137Z,87.40
2018-04-22T19:22:44.669Z,88.90
2018-04-22T19:25:12.217Z,89.90
2018-04-22T19:27:40.515Z,89.80
2018-04-22T19:30:08.064Z,89.80
2018-04-22T19:32:35.596Z,90.20
2018-04-22T19:35:03.925Z,90.70
2018-04-22T19:37:31.454Z,90.60
2018-04-22T19:39:59.009Z,91.10
2018-04-22T19:42:27.301Z,91.60
2018-04-22T19:44:54.852Z,91.60
2018-04-22T19:47:22.443Z,90.80
2018-04-22T19:49:49.976Z,90.80
2018-04-22T19:52:17.521Z,91.50
2018-04-22T19:54:45.921Z,92.10
2018-04-22T19:57:13.448Z,92.00
2018-04-22T19:59:41.768Z,92.90
2018-04-22T20:02:09.296Z,92.80
2018-04-22T20:04:36.860Z,93.30
2018-04-22T20:07:05.160Z,94.10
2018-04-22T20:09:32.722Z,94.00
2018-04-22T20:12:00.265Z,94.30
2018-04-22T20:14:27.825Z,94.60
2018-04-22T20:16:55.368Z,95.70
2018-04-22T20:19:23.697Z,95.90
2018-04-22T20:21:51.223Z,95.90
2018-04-22T20:24:18.785Z,96.00
2018-04-22T20:26:46.313Z,96.50
2018-04-22T20:29:13.875Z,96.50
2018-04-22T20:31:42.181Z,97.30
2018-04-22T20:34:09.741Z,97.20
2018-04-22T20:36:37.279Z,97.40
2018-04-22T20:39:06.524Z,98.50
2018-04-22T20:41:34.049Z,98.40
2018-04-22T20:44:02.377Z,99.00
2018-04-22T20:46:29.917Z,99.00
2018-04-22T20:48:57.477Z,99.10
2018-04-22T20:51:24.997Z,99.90
2018-04-22T20:53:53.326Z,99.90
2018-04-22T20:56:20.852Z,99.90
2018-04-22T20:58:48.406Z,99.90
2018-04-22T21:01:15.940Z,99.90
2018-04-22T21:03:43.494Z,99.90
2018-04-22T21:06:11.026Z,99.90
2018-04-22T21:08:38.558Z,99.90
2018-04-22T21:11:06.115Z,99.90
2018-04-22T21:13:33.655Z,99.90
2018-04-22T21:16:01.977Z,99.90
2018-04-22T21:18:29.509Z,99.90
2018-04-22T21:20:57.063Z,99.90
2018-04-22T21:23:24.594Z,99.90
2018-04-22T21:25:52.158Z,99.90
2018-04-22T21:28:19.705Z,99.90
2018-04-22T21:30:47.263Z,99.90
2018-04-22T21:33:14.792Z,99.90
2018-04-22T21:35:42.350Z,99.90
2018-04-22T21:38:09.873Z,99.90
2018-04-22T21:40:38.197Z,99.90
2018-04-22T21:43:05.716Z,99.90
2018-04-22T21:45:34.041Z,99.90
2018-04-22T21:48:01.566Z,99.90
2018-04-22T21:50:29.124Z,99.90
2018-04-22T21:52:56.649Z,99.90
2018-04-22T21:55:24.202Z,99.90
2018-04-22T21:57:51.724Z,99.90
2018-04-22T22:00:19.273Z,99.90
2018-04-22T22:02:46.806Z,99.90
2018-04-22T22:05:15.120Z,99.90
2018-04-22T22:07:42.652Z,99.90
2018-04-22T22:10:10.968Z,99.90
2018-04-22T22:12:38.493Z,99.90
2018-04-22T22:15:06.057Z,99.90
2018-04-22T22:17:33.584Z,99.90
2018-04-22T22:20:01.142Z,99.90
2018-04-22T22:22:28.672Z,99.90
2018-04-22T22:24:56.993Z,99.90
2018-04-22T22:27:25.284Z,99.90
2018-04-22T22:29:52.838Z,99.90
2018-04-22T22:32:20.377Z,99.90
2018-04-22T22:34:47.933Z,99.90
2018-04-22T22:37:15.457Z,99.90
2018-04-22T22:39:43.004Z,99.90
2018-04-22T22:42:10.524Z,99.90
2018-04-22T22:44:38.840Z,99.90
2018-04-22T22:47:06.369Z,99.90
2018-04-22T22:49:34.690Z,99.90
2018-04-22T22:52:02.222Z,99.90
2018-04-22T22:54:29.772Z,99.90
2018-04-22T22:56:58.063Z,99.90
2018-04-22T22:59:25.608Z,99.90
2018-04-22T23:01:53.911Z,99.90
2018-04-22T23:04:21.460Z,99.90
2018-04-22T23:06:48.988Z,99.90
2018-04-22T23:09:17.313Z,99.90
2018-04-22T23:11:44.845Z,99.90
2018-04-22T23:14:12.377Z,99.90
2018-04-22T23:16:39.921Z,99.90
2018-04-22T23:19:07.450Z,99.90
2018-04-22T23:21:35.009Z,99.90
2018-04-22T23:24:02.536Z,99.90
2018-04-22T23:26:30.102Z,99.90
2018-04-22T23:28:57.641Z,99.90
2018-04-22T23:31:25.966Z,99.90
2018-04-22T23:33:53.496Z,99.90
2018-04-22T23:36:21.815Z,99.90
2018-04-22T23:38:49.340Z,99.90
2018-04-22T23:41:16.897Z,99.90
2018-04-22T23:43:44.437Z,99.90
2018-04-22T23:46:12.752Z,99.90
2018-04-22T23:48:40.281Z,99.90
2018-04-22T23:51:08.596Z,99.90
2018-04-22T23:53:36.120Z,99.90
2018-04-22T23:56:04.436Z,99.90
2018-04-22T23:58:31.975Z,99.90
